sensor_id;sensor_type;location;lat;lon;timestamp;temperature;humidity
3790;DHT22;1910;49.042;9.028;2022-12-07T00:03:34;3.80;99.90
3790;DHT22;1910;49.042;9.028;2022-12-07T00:06:00;3.20;99.90
3790;DHT22;1910;49.042;9.028;2022-12-07T00:08:26;3.20;99.90
3790;DHT22;1910;49.042;9.028;2022-12-07T00:10:52;3.20;99.90
3790;DHT22;1910;49.042;9.028;2022-12-07T00:13:19;3.20;99.90
3790;DHT22;1910;49.042;9.028;2022-12-07T00:15:45;3.20;99.90
3790;DHT22;1910;49.042;9.028;2022-12-07T00:18:11;3.20;99.90
3790;DHT22;1910;49.042;9.028;2022-12-07T00:20:36;3.20;99.90
3790;DHT22;1910;49.042;9.028;2022-12-07T00:23:02;3.20;99.90
3790;DHT22;1910;49.042;9.028;2022-12-07T00:25:28;3.20;99.90
3790;DHT22;1910;49.042;9.028;2022-12-07T00:27:55;3.20;99.90
3790;DHT22;1910;49.042;9.028;2022-12-07T00:30:22;3.20;99.90
3790;DHT22;1910;49.042;9.028;2022-12-07T00:32:48;3.20;99.90
3790;DHT22;1910;49.042;9.028;2022-12-07T00:35:13;3.20;99.90
3790;DHT22;1910;49.042;9.028;2022-12-07T00:37:39;3.20;99.90
3790;DHT22;1910;49.042;9.028;2022-12-07T00:40:05;3.20;99.90
3790;DHT22;1910;49.042;9.028;2022-12-07T00:42:31;3.20;99.90
3790;DHT22;1910;49.042;9.028;2022-12-07T00:44:57;3.20;99.90
3790;DHT22;1910;49.042;9.028;2022-12-07T00:47:22;3.10;99.90
3790;DHT22;1910;49.042;9.028;2022-12-07T00:49:48;3.20;99.90
3790;DHT22;1910;49.042;9.028;2022-12-07T00:52:13;3.20;99.90
3790;DHT22;1910;49.042;9.028;2022-12-07T00:54:39;3.10;99.90
3790;DHT22;1910;49.042;9.028;2022-12-07T00:57:05;3.20;99.90
3790;DHT22;1910;49.042;9.028;2022-12-07T00:59:30;3.10;99.90
3790;DHT22;1910;49.042;9.028;2022-12-07T01:04:22;3.10;99.90
3790;DHT22;1910;49.042;9.028;2022-12-07T01:09:13;3.20;99.90
3790;DHT22;1910;49.042;9.028;2022-12-07T01:11:39;3.20;99.90
3790;DHT22;1910;49.042;9.028;2022-12-07T01:16:32;3.10;99.90
3790;DHT22;1910;49.042;9.028;2022-12-07T01:18:58;3.10;99.90
3790;DHT22;1910;49.042;9.028;2022-12-07T01:21:26;3.10;99.90
3790;DHT22;1910;49.042;9.028;2022-12-07T01:23:52;3.10;99.90
3790;DHT22;1910;49.042;9.028;2022-12-07T01:26:21;3.10;99.90
3790;DHT22;1910;49.042;9.028;2022-12-07T01:28:47;2.60;99.90
3790;DHT22;1910;49.042;9.028;2022-12-07T01:31:15;3.10;99.90
3790;DHT22;1910;49.042;9.028;2022-12-07T01:33:43;3.10;99.90
3790;DHT22;1910;49.042;9.028;2022-12-07T01:36:15;3.10;99.90
3790;DHT22;1910;49.042;9.028;2022-12-07T01:38:42;3.10;99.90
3790;DHT22;1910;49.042;9.028;2022-12-07T01:41:08;3.10;99.90
3790;DHT22;1910;49.042;9.028;2022-12-07T01:43:35;3.10;99.90
3790;DHT22;1910;49.042;9.028;2022-12-07T01:46:02;3.10;99.90
3790;DHT22;1910;49.042;9.028;2022-12-07T01:48:33;3.10;99.90
3790;DHT22;1910;49.042;9.028;2022-12-07T01:51:03;3.10;99.90
3790;DHT22;1910;49.042;9.028;2022-12-07T01:53:30;3.10;99.90
3790;DHT22;1910;49.042;9.028;2022-12-07T01:55:57;3.10;99.90
3790;DHT22;1910;49.042;9.028;2022-12-07T01:58:24;3.10;99.90
3790;DHT22;1910;49.042;9.028;2022-12-07T02:00:50;3.10;99.90
3790;DHT22;1910;49.042;9.028;2022-12-07T02:03:22;3.10;99.90
3790;DHT22;1910;49.042;9.028;2022-12-07T02:05:50;3.00;99.90
3790;DHT22;1910;49.042;9.028;2022-12-07T02:08:16;3.00;99.90
3790;DHT22;1910;49.042;9.028;2022-12-07T02:10:42;3.10;99.90
3790;DHT22;1910;49.042;9.028;2022-12-07T02:13:18;3.10;99.90
3790;DHT22;1910;49.042;9.028;2022-12-07T02:20:57;3.00;99.90
3790;DHT22;1910;49.042;9.028;2022-12-07T02:23:53;2.90;99.90
3790;DHT22;1910;49.042;9.028;2022-12-07T02:29:23;2.80;99.90
3790;DHT22;1910;49.042;9.028;2022-12-07T02:32:05;2.80;99.90
3790;DHT22;1910;49.042;9.028;2022-12-07T02:35:03;2.70;99.90
3790;DHT22;1910;49.042;9.028;2022-12-07T02:40:09;2.60;99.90
3790;DHT22;1910;49.042;9.028;2022-12-07T02:42:40;2.50;99.90
3790;DHT22;1910;49.042;9.028;2022-12-07T02:45:08;2.50;99.90
3790;DHT22;1910;49.042;9.028;2022-12-07T02:47:36;2.50;99.90
3790;DHT22;1910;49.042;9.028;2022-12-07T02:50:04;2.50;99.90
3790;DHT22;1910;49.042;9.028;2022-12-07T02:52:31;2.50;99.90
3790;DHT22;1910;49.042;9.028;2022-12-07T02:54:57;2.50;99.90
3790;DHT22;1910;49.042;9.028;2022-12-07T03:00:24;2.60;99.90
3790;DHT22;1910;49.042;9.028;2022-12-07T03:02:54;2.70;99.90
3790;DHT22;1910;49.042;9.028;2022-12-07T03:08:21;2.80;99.90
3790;DHT22;1910;49.042;9.028;2022-12-07T03:13:34;2.80;99.90
3790;DHT22;1910;49.042;9.028;2022-12-07T03:16:24;2.80;99.90
3790;DHT22;1910;49.042;9.028;2022-12-07T03:18:59;2.90;99.90
3790;DHT22;1910;49.042;9.028;2022-12-07T03:21:33;3.00;99.90
3790;DHT22;1910;49.042;9.028;2022-12-07T03:24:05;3.20;99.90
3790;DHT22;1910;49.042;9.028;2022-12-07T03:26:35;3.30;99.90
3790;DHT22;1910;49.042;9.028;2022-12-07T03:29:08;3.30;99.90
3790;DHT22;1910;49.042;9.028;2022-12-07T03:31:42;3.40;99.90
3790;DHT22;1910;49.042;9.028;2022-12-07T03:34:40;3.30;99.90
3790;DHT22;1910;49.042;9.028;2022-12-07T03:37:15;3.20;99.90
3790;DHT22;1910;49.042;9.028;2022-12-07T03:42:34;3.00;99.90
3790;DHT22;1910;49.042;9.028;2022-12-07T03:45:01;3.00;99.90
3790;DHT22;1910;49.042;9.028;2022-12-07T03:48:06;3.00;99.90
3790;DHT22;1910;49.042;9.028;2022-12-07T03:50:44;3.00;99.90
3790;DHT22;1910;49.042;9.028;2022-12-07T03:53:20;3.00;99.90
3790;DHT22;1910;49.042;9.028;2022-12-07T03:55:49;3.00;99.90
3790;DHT22;1910;49.042;9.028;2022-12-07T03:58:20;3.00;99.90
3790;DHT22;1910;49.042;9.028;2022-12-07T04:00:48;3.00;99.90
3790;DHT22;1910;49.042;9.028;2022-12-07T04:03:14;3.00;99.90
3790;DHT22;1910;49.042;9.028;2022-12-07T04:05:40;3.00;99.90
3790;DHT22;1910;49.042;9.028;2022-12-07T04:08:06;3.00;99.90
3790;DHT22;1910;49.042;9.028;2022-12-07T04:10:31;2.90;99.90
3790;DHT22;1910;49.042;9.028;2022-12-07T04:12:57;2.90;99.90
3790;DHT22;1910;49.042;9.028;2022-12-07T04:15:22;2.90;99.90
3790;DHT22;1910;49.042;9.028;2022-12-07T04:17:48;2.80;99.90
3790;DHT22;1910;49.042;9.028;2022-12-07T04:20:14;2.80;99.90
3790;DHT22;1910;49.042;9.028;2022-12-07T04:22:39;2.80;99.90
3790;DHT22;1910;49.042;9.028;2022-12-07T04:25:05;2.80;99.90
3790;DHT22;1910;49.042;9.028;2022-12-07T04:27:31;2.80;99.90
3790;DHT22;1910;49.042;9.028;2022-12-07T04:29:56;2.80;99.90
3790;DHT22;1910;49.042;9.028;2022-12-07T04:32:22;2.80;99.90
3790;DHT22;1910;49.042;9.028;2022-12-07T04:34:48;2.70;99.90
3790;DHT22;1910;49.042;9.028;2022-12-07T04:37:14;2.60;99.90
3790;DHT22;1910;49.042;9.028;2022-12-07T04:39:40;2.60;99.90
3790;DHT22;1910;49.042;9.028;2022-12-07T04:42:05;2.40;99.90
3790;DHT22;1910;49.042;9.028;2022-12-07T04:44:31;2.50;99.90
3790;DHT22;1910;49.042;9.028;2022-12-07T04:46:57;2.40;99.90
3790;DHT22;1910;49.042;9.028;2022-12-07T04:49:23;2.40;99.90
3790;DHT22;1910;49.042;9.028;2022-12-07T04:51:49;2.30;99.90
3790;DHT22;1910;49.042;9.028;2022-12-07T04:54:15;2.40;99.90
3790;DHT22;1910;49.042;9.028;2022-12-07T04:56:41;2.40;99.90
3790;DHT22;1910;49.042;9.028;2022-12-07T04:59:07;2.50;99.90
3790;DHT22;1910;49.042;9.028;2022-12-07T05:01:34;2.50;99.90
3790;DHT22;1910;49.042;9.028;2022-12-07T05:04:00;2.60;99.90
3790;DHT22;1910;49.042;9.028;2022-12-07T05:06:26;2.60;99.90
3790;DHT22;1910;49.042;9.028;2022-12-07T05:08:51;2.60;99.90
3790;DHT22;1910;49.042;9.028;2022-12-07T05:11:17;2.70;99.90
3790;DHT22;1910;49.042;9.028;2022-12-07T05:14:03;2.70;99.90
3790;DHT22;1910;49.042;9.028;2022-12-07T05:16:29;2.80;99.90
3790;DHT22;1910;49.042;9.028;2022-12-07T05:21:21;2.80;99.90
3790;DHT22;1910;49.042;9.028;2022-12-07T05:23:46;2.80;99.90
3790;DHT22;1910;49.042;9.028;2022-12-07T05:26:12;2.90;99.90
3790;DHT22;1910;49.042;9.028;2022-12-07T05:28:38;2.90;99.90
3790;DHT22;1910;49.042;9.028;2022-12-07T05:33:29;2.90;99.90
3790;DHT22;1910;49.042;9.028;2022-12-07T05:35:55;2.90;99.90
3790;DHT22;1910;49.042;9.028;2022-12-07T05:38:20;2.90;99.90
3790;DHT22;1910;49.042;9.028;2022-12-07T05:40:46;2.90;99.90
3790;DHT22;1910;49.042;9.028;2022-12-07T05:43:11;3.00;99.90
3790;DHT22;1910;49.042;9.028;2022-12-07T05:45:37;3.00;99.90
3790;DHT22;1910;49.042;9.028;2022-12-07T05:48:03;3.00;99.90
3790;DHT22;1910;49.042;9.028;2022-12-07T05:50:28;3.00;99.90
3790;DHT22;1910;49.042;9.028;2022-12-07T05:52:54;3.00;99.90
3790;DHT22;1910;49.042;9.028;2022-12-07T05:55:19;3.00;99.90
3790;DHT22;1910;49.042;9.028;2022-12-07T06:00:32;2.90;99.90
3790;DHT22;1910;49.042;9.028;2022-12-07T06:02:57;2.90;99.90
3790;DHT22;1910;49.042;9.028;2022-12-07T06:05:23;2.90;99.90
3790;DHT22;1910;49.042;9.028;2022-12-07T06:07:48;2.80;99.90
3790;DHT22;1910;49.042;9.028;2022-12-07T06:10:14;2.80;99.90
3790;DHT22;1910;49.042;9.028;2022-12-07T06:12:39;2.80;99.90
3790;DHT22;1910;49.042;9.028;2022-12-07T06:15:08;2.80;99.90
3790;DHT22;1910;49.042;9.028;2022-12-07T06:17:34;2.80;99.90
3790;DHT22;1910;49.042;9.028;2022-12-07T06:19:59;2.80;99.90
3790;DHT22;1910;49.042;9.028;2022-12-07T06:22:25;2.80;99.90
3790;DHT22;1910;49.042;9.028;2022-12-07T06:24:50;2.80;99.90
3790;DHT22;1910;49.042;9.028;2022-12-07T06:27:16;2.90;99.90
3790;DHT22;1910;49.042;9.028;2022-12-07T06:29:41;2.90;99.90
3790;DHT22;1910;49.042;9.028;2022-12-07T06:32:07;2.80;99.90
3790;DHT22;1910;49.042;9.028;2022-12-07T06:36:58;2.90;99.90
3790;DHT22;1910;49.042;9.028;2022-12-07T06:39:25;2.90;99.90
3790;DHT22;1910;49.042;9.028;2022-12-07T06:41:52;2.90;99.90
3790;DHT22;1910;49.042;9.028;2022-12-07T06:44:18;2.90;99.90
3790;DHT22;1910;49.042;9.028;2022-12-07T06:46:44;2.90;99.90
3790;DHT22;1910;49.042;9.028;2022-12-07T06:49:09;2.90;99.90
3790;DHT22;1910;49.042;9.028;2022-12-07T06:51:35;2.90;99.90
3790;DHT22;1910;49.042;9.028;2022-12-07T06:54:04;3.00;99.90
3790;DHT22;1910;49.042;9.028;2022-12-07T06:56:30;2.90;99.90
3790;DHT22;1910;49.042;9.028;2022-12-07T07:01:22;2.90;99.90
3790;DHT22;1910;49.042;9.028;2022-12-07T07:03:47;3.00;99.90
3790;DHT22;1910;49.042;9.028;2022-12-07T07:06:13;2.90;99.90
3790;DHT22;1910;49.042;9.028;2022-12-07T07:08:39;3.00;99.90
3790;DHT22;1910;49.042;9.028;2022-12-07T07:11:05;3.00;99.90
3790;DHT22;1910;49.042;9.028;2022-12-07T07:13:31;3.00;99.90
3790;DHT22;1910;49.042;9.028;2022-12-07T07:20:50;3.00;99.90
3790;DHT22;1910;49.042;9.028;2022-12-07T07:23:16;3.00;99.90
3790;DHT22;1910;49.042;9.028;2022-12-07T07:25:42;2.90;99.90
3790;DHT22;1910;49.042;9.028;2022-12-07T07:30:33;3.00;99.90
3790;DHT22;1910;49.042;9.028;2022-12-07T07:33:00;3.00;99.90
3790;DHT22;1910;49.042;9.028;2022-12-07T07:35:27;3.00;99.90
3790;DHT22;1910;49.042;9.028;2022-12-07T07:37:53;3.00;99.90
3790;DHT22;1910;49.042;9.028;2022-12-07T07:40:19;3.10;99.90
3790;DHT22;1910;49.042;9.028;2022-12-07T07:42:49;3.10;99.90
3790;DHT22;1910;49.042;9.028;2022-12-07T07:45:15;3.10;99.90
3790;DHT22;1910;49.042;9.028;2022-12-07T07:47:40;3.10;99.90
3790;DHT22;1910;49.042;9.028;2022-12-07T07:50:06;3.10;99.90
3790;DHT22;1910;49.042;9.028;2022-12-07T07:52:32;3.10;99.90
3790;DHT22;1910;49.042;9.028;2022-12-07T07:54:58;3.20;99.90
3790;DHT22;1910;49.042;9.028;2022-12-07T07:57:23;3.20;99.90
3790;DHT22;1910;49.042;9.028;2022-12-07T07:59:49;3.20;99.90
3790;DHT22;1910;49.042;9.028;2022-12-07T08:02:16;3.30;99.90
3790;DHT22;1910;49.042;9.028;2022-12-07T08:07:09;3.40;99.90
3790;DHT22;1910;49.042;9.028;2022-12-07T08:09:34;3.50;99.90
3790;DHT22;1910;49.042;9.028;2022-12-07T08:12:00;3.40;99.90
3790;DHT22;1910;49.042;9.028;2022-12-07T08:14:26;3.40;99.90
3790;DHT22;1910;49.042;9.028;2022-12-07T08:16:52;3.60;99.90
3790;DHT22;1910;49.042;9.028;2022-12-07T08:19:18;3.60;99.90
3790;DHT22;1910;49.042;9.028;2022-12-07T08:21:44;3.60;99.90
3790;DHT22;1910;49.042;9.028;2022-12-07T08:24:09;3.70;99.90
3790;DHT22;1910;49.042;9.028;2022-12-07T08:26:35;3.90;99.90
3790;DHT22;1910;49.042;9.028;2022-12-07T08:29:00;3.90;99.90
3790;DHT22;1910;49.042;9.028;2022-12-07T08:31:26;3.90;99.90
3790;DHT22;1910;49.042;9.028;2022-12-07T08:33:53;3.90;99.90
3790;DHT22;1910;49.042;9.028;2022-12-07T08:36:18;3.90;99.90
3790;DHT22;1910;49.042;9.028;2022-12-07T08:38:44;4.00;99.90
3790;DHT22;1910;49.042;9.028;2022-12-07T08:41:10;3.80;99.90
3790;DHT22;1910;49.042;9.028;2022-12-07T08:43:39;3.80;99.90
3790;DHT22;1910;49.042;9.028;2022-12-07T08:49:22;3.80;99.90
3790;DHT22;1910;49.042;9.028;2022-12-07T08:51:49;3.90;99.90
3790;DHT22;1910;49.042;9.028;2022-12-07T08:54:16;3.90;99.90
3790;DHT22;1910;49.042;9.028;2022-12-07T08:56:43;3.90;99.90
3790;DHT22;1910;49.042;9.028;2022-12-07T08:59:10;4.20;99.90
3790;DHT22;1910;49.042;9.028;2022-12-07T09:01:35;4.20;99.90
3790;DHT22;1910;49.042;9.028;2022-12-07T09:04:01;4.30;99.90
3790;DHT22;1910;49.042;9.028;2022-12-07T09:06:27;4.30;99.90
3790;DHT22;1910;49.042;9.028;2022-12-07T09:08:56;4.30;99.90
3790;DHT22;1910;49.042;9.028;2022-12-07T09:11:22;4.10;99.90
3790;DHT22;1910;49.042;9.028;2022-12-07T09:13:48;4.10;99.90
3790;DHT22;1910;49.042;9.028;2022-12-07T09:16:13;4.30;99.90
3790;DHT22;1910;49.042;9.028;2022-12-07T09:18:39;4.20;99.90
3790;DHT22;1910;49.042;9.028;2022-12-07T09:21:05;4.10;99.90
3790;DHT22;1910;49.042;9.028;2022-12-07T09:23:30;4.20;99.90
3790;DHT22;1910;49.042;9.028;2022-12-07T09:26:02;4.30;99.90
3790;DHT22;1910;49.042;9.028;2022-12-07T09:28:30;4.30;99.90
3790;DHT22;1910;49.042;9.028;2022-12-07T09:30:56;4.30;99.90
3790;DHT22;1910;49.042;9.028;2022-12-07T09:33:22;4.40;99.90
3790;DHT22;1910;49.042;9.028;2022-12-07T09:35:49;4.50;99.90
3790;DHT22;1910;49.042;9.028;2022-12-07T09:38:16;4.40;99.90
3790;DHT22;1910;49.042;9.028;2022-12-07T09:40:42;4.30;99.90
3790;DHT22;1910;49.042;9.028;2022-12-07T09:43:18;4.20;99.90
3790;DHT22;1910;49.042;9.028;2022-12-07T09:45:45;4.20;99.90
3790;DHT22;1910;49.042;9.028;2022-12-07T09:48:21;4.20;99.90
3790;DHT22;1910;49.042;9.028;2022-12-07T09:50:48;4.20;99.90
3790;DHT22;1910;49.042;9.028;2022-12-07T09:55:51;4.10;99.90
3790;DHT22;1910;49.042;9.028;2022-12-07T09:58:22;4.10;99.90
3790;DHT22;1910;49.042;9.028;2022-12-07T10:00:59;4.10;99.90
3790;DHT22;1910;49.042;9.028;2022-12-07T10:03:28;4.10;99.90
3790;DHT22;1910;49.042;9.028;2022-12-07T10:05:55;4.10;99.90
3790;DHT22;1910;49.042;9.028;2022-12-07T10:08:20;4.20;99.90
3790;DHT22;1910;49.042;9.028;2022-12-07T10:10:51;4.30;99.90
3790;DHT22;1910;49.042;9.028;2022-12-07T10:13:21;4.40;99.90
3790;DHT22;1910;49.042;9.028;2022-12-07T10:15:57;4.30;99.90
3790;DHT22;1910;49.042;9.028;2022-12-07T10:18:31;4.50;99.90
3790;DHT22;1910;49.042;9.028;2022-12-07T10:21:18;4.30;99.90
3790;DHT22;1910;49.042;9.028;2022-12-07T10:32:51;4.50;99.90
3790;DHT22;1910;49.042;9.028;2022-12-07T10:35:30;4.90;99.90
3790;DHT22;1910;49.042;9.028;2022-12-07T10:37:58;5.30;99.90
3790;DHT22;1910;49.042;9.028;2022-12-07T10:43:02;5.50;99.90
3790;DHT22;1910;49.042;9.028;2022-12-07T10:45:28;5.50;99.90
3790;DHT22;1910;49.042;9.028;2022-12-07T10:48:11;5.50;99.90
3790;DHT22;1910;49.042;9.028;2022-12-07T10:53:54;5.70;99.90
3790;DHT22;1910;49.042;9.028;2022-12-07T10:56:48;5.70;99.90
3790;DHT22;1910;49.042;9.028;2022-12-07T11:02:06;5.60;99.90
3790;DHT22;1910;49.042;9.028;2022-12-07T11:07:59;5.40;99.90
3790;DHT22;1910;49.042;9.028;2022-12-07T11:10:45;5.40;99.90
3790;DHT22;1910;49.042;9.028;2022-12-07T11:18:51;4.80;99.90
3790;DHT22;1910;49.042;9.028;2022-12-07T11:21:32;4.60;99.90
3790;DHT22;1910;49.042;9.028;2022-12-07T11:24:18;4.80;99.90
3790;DHT22;1910;49.042;9.028;2022-12-07T11:29:28;5.00;99.90
3790;DHT22;1910;49.042;9.028;2022-12-07T11:35:15;4.70;99.90
3790;DHT22;1910;49.042;9.028;2022-12-07T11:37:49;4.80;99.90
3790;DHT22;1910;49.042;9.028;2022-12-07T11:40:30;4.70;99.90
3790;DHT22;1910;49.042;9.028;2022-12-07T11:43:01;4.90;99.90
3790;DHT22;1910;49.042;9.028;2022-12-07T11:45:34;4.90;99.90
3790;DHT22;1910;49.042;9.028;2022-12-07T11:50:34;5.10;99.90
3790;DHT22;1910;49.042;9.028;2022-12-07T11:55:56;5.10;99.90
3790;DHT22;1910;49.042;9.028;2022-12-07T12:03:47;5.20;99.90
3790;DHT22;1910;49.042;9.028;2022-12-07T12:06:13;5.10;99.90
3790;DHT22;1910;49.042;9.028;2022-12-07T12:09:43;5.20;99.90
3790;DHT22;1910;49.042;9.028;2022-12-07T12:20:23;5.50;99.90
3790;DHT22;1910;49.042;9.028;2022-12-07T12:22:55;5.70;99.90
3790;DHT22;1910;49.042;9.028;2022-12-07T12:25:27;6.00;99.90
3790;DHT22;1910;49.042;9.028;2022-12-07T12:27:55;6.10;99.90
3790;DHT22;1910;49.042;9.028;2022-12-07T12:30:40;6.10;99.90
3790;DHT22;1910;49.042;9.028;2022-12-07T12:33:28;5.90;99.90
3790;DHT22;1910;49.042;9.028;2022-12-07T12:38:51;5.70;99.90
3790;DHT22;1910;49.042;9.028;2022-12-07T12:44:02;5.80;99.90
3790;DHT22;1910;49.042;9.028;2022-12-07T12:54:24;6.20;99.90
3790;DHT22;1910;49.042;9.028;2022-12-07T12:57:21;6.20;99.90
3790;DHT22;1910;49.042;9.028;2022-12-07T13:02:29;6.30;99.90
3790;DHT22;1910;49.042;9.028;2022-12-07T13:20:57;5.50;99.90
3790;DHT22;1910;49.042;9.028;2022-12-07T13:34:04;5.40;99.90
3790;DHT22;1910;49.042;9.028;2022-12-07T13:36:37;4.80;99.90
3790;DHT22;1910;49.042;9.028;2022-12-07T13:39:21;4.80;99.90
3790;DHT22;1910;49.042;9.028;2022-12-07T13:41:53;4.80;99.90
3790;DHT22;1910;49.042;9.028;2022-12-07T13:44:19;4.70;99.90
3790;DHT22;1910;49.042;9.028;2022-12-07T13:47:11;4.60;99.90
3790;DHT22;1910;49.042;9.028;2022-12-07T13:49:50;4.40;99.90
3790;DHT22;1910;49.042;9.028;2022-12-07T13:52:22;4.50;99.90
3790;DHT22;1910;49.042;9.028;2022-12-07T13:55:14;4.40;99.90
3790;DHT22;1910;49.042;9.028;2022-12-07T13:57:40;4.50;99.90
3790;DHT22;1910;49.042;9.028;2022-12-07T14:00:16;4.40;99.90
3790;DHT22;1910;49.042;9.028;2022-12-07T14:05:29;4.40;99.90
3790;DHT22;1910;49.042;9.028;2022-12-07T14:07:55;6.10;99.90
3790;DHT22;1910;49.042;9.028;2022-12-07T14:10:27;4.60;99.90
3790;DHT22;1910;49.042;9.028;2022-12-07T14:12:54;4.70;99.90
3790;DHT22;1910;49.042;9.028;2022-12-07T14:15:22;4.70;99.90
3790;DHT22;1910;49.042;9.028;2022-12-07T14:17:52;4.70;99.90
3790;DHT22;1910;49.042;9.028;2022-12-07T14:20:39;4.60;99.90
3790;DHT22;1910;49.042;9.028;2022-12-07T14:23:21;4.40;99.90
3790;DHT22;1910;49.042;9.028;2022-12-07T14:25:51;4.20;99.90
3790;DHT22;1910;49.042;9.028;2022-12-07T14:28:33;4.20;99.90
3790;DHT22;1910;49.042;9.028;2022-12-07T14:31:00;4.20;99.90
3790;DHT22;1910;49.042;9.028;2022-12-07T14:33:26;4.30;99.90
3790;DHT22;1910;49.042;9.028;2022-12-07T14:35:51;4.20;99.90
3790;DHT22;1910;49.042;9.028;2022-12-07T14:38:24;4.20;99.90
3790;DHT22;1910;49.042;9.028;2022-12-07T14:40:51;4.10;99.90
3790;DHT22;1910;49.042;9.028;2022-12-07T14:43:18;4.10;99.90
3790;DHT22;1910;49.042;9.028;2022-12-07T14:45:45;4.10;99.90
3790;DHT22;1910;49.042;9.028;2022-12-07T14:48:12;3.30;99.90
3790;DHT22;1910;49.042;9.028;2022-12-07T14:50:49;4.10;99.90
3790;DHT22;1910;49.042;9.028;2022-12-07T14:53:17;4.10;99.90
3790;DHT22;1910;49.042;9.028;2022-12-07T14:55:43;4.00;99.90
3790;DHT22;1910;49.042;9.028;2022-12-07T14:58:14;5.30;99.90
3790;DHT22;1910;49.042;9.028;2022-12-07T15:00:40;3.90;99.90
3790;DHT22;1910;49.042;9.028;2022-12-07T15:05:33;4.00;99.90
3790;DHT22;1910;49.042;9.028;2022-12-07T15:07:59;3.80;99.90
3790;DHT22;1910;49.042;9.028;2022-12-07T15:10:27;3.70;99.90
3790;DHT22;1910;49.042;9.028;2022-12-07T15:12:58;3.70;99.90
3790;DHT22;1910;49.042;9.028;2022-12-07T15:15:48;3.70;99.90
3790;DHT22;1910;49.042;9.028;2022-12-07T15:18:14;3.70;99.90
3790;DHT22;1910;49.042;9.028;2022-12-07T15:25:32;3.60;99.90
3790;DHT22;1910;49.042;9.028;2022-12-07T15:32:50;3.60;99.90
3790;DHT22;1910;49.042;9.028;2022-12-07T15:35:16;3.80;99.90
3790;DHT22;1910;49.042;9.028;2022-12-07T15:37:42;6.60;99.90
3790;DHT22;1910;49.042;9.028;2022-12-07T15:40:08;3.50;99.90
3790;DHT22;1910;49.042;9.028;2022-12-07T15:42:35;3.60;99.90
3790;DHT22;1910;49.042;9.028;2022-12-07T15:45:01;3.60;99.90
3790;DHT22;1910;49.042;9.028;2022-12-07T15:47:31;4.70;99.90
3790;DHT22;1910;49.042;9.028;2022-12-07T15:49:57;3.50;99.90
3790;DHT22;1910;49.042;9.028;2022-12-07T15:54:48;3.50;99.90
3790;DHT22;1910;49.042;9.028;2022-12-07T15:57:14;3.40;99.90
3790;DHT22;1910;49.042;9.028;2022-12-07T15:59:40;3.40;99.90
3790;DHT22;1910;49.042;9.028;2022-12-07T16:02:05;3.40;99.90
3790;DHT22;1910;49.042;9.028;2022-12-07T16:04:31;3.20;99.90
3790;DHT22;1910;49.042;9.028;2022-12-07T16:06:57;3.10;99.90
3790;DHT22;1910;49.042;9.028;2022-12-07T16:09:23;3.10;99.90
3790;DHT22;1910;49.042;9.028;2022-12-07T16:11:48;3.00;99.90
3790;DHT22;1910;49.042;9.028;2022-12-07T16:14:15;2.90;99.90
3790;DHT22;1910;49.042;9.028;2022-12-07T16:16:41;2.90;99.90
3790;DHT22;1910;49.042;9.028;2022-12-07T16:19:07;2.50;99.90
3790;DHT22;1910;49.042;9.028;2022-12-07T16:21:34;2.70;99.90
3790;DHT22;1910;49.042;9.028;2022-12-07T16:24:01;2.70;99.90
3790;DHT22;1910;49.042;9.028;2022-12-07T16:26:27;2.70;99.90
3790;DHT22;1910;49.042;9.028;2022-12-07T16:28:53;2.70;99.90
3790;DHT22;1910;49.042;9.028;2022-12-07T16:31:24;2.60;99.90
3790;DHT22;1910;49.042;9.028;2022-12-07T16:33:50;2.70;99.90
3790;DHT22;1910;49.042;9.028;2022-12-07T16:36:17;2.80;99.90
3790;DHT22;1910;49.042;9.028;2022-12-07T16:38:43;2.80;99.90
3790;DHT22;1910;49.042;9.028;2022-12-07T16:41:09;2.80;99.90
3790;DHT22;1910;49.042;9.028;2022-12-07T16:43:37;2.90;99.90
3790;DHT22;1910;49.042;9.028;2022-12-07T16:46:03;2.90;99.90
3790;DHT22;1910;49.042;9.028;2022-12-07T16:48:29;3.00;99.90
3790;DHT22;1910;49.042;9.028;2022-12-07T16:50:56;3.00;99.90
3790;DHT22;1910;49.042;9.028;2022-12-07T16:53:23;3.00;99.90
3790;DHT22;1910;49.042;9.028;2022-12-07T16:55:50;3.00;99.90
3790;DHT22;1910;49.042;9.028;2022-12-07T16:58:16;2.90;99.90
3790;DHT22;1910;49.042;9.028;2022-12-07T17:00:43;2.90;99.90
3790;DHT22;1910;49.042;9.028;2022-12-07T17:03:09;2.90;99.90
3790;DHT22;1910;49.042;9.028;2022-12-07T17:05:42;2.90;99.90
3790;DHT22;1910;49.042;9.028;2022-12-07T17:08:09;2.90;99.90
3790;DHT22;1910;49.042;9.028;2022-12-07T17:10:38;2.90;99.90
3790;DHT22;1910;49.042;9.028;2022-12-07T17:13:04;2.90;99.90
3790;DHT22;1910;49.042;9.028;2022-12-07T17:16:01;2.90;99.90
3790;DHT22;1910;49.042;9.028;2022-12-07T17:18:29;2.90;99.90
3790;DHT22;1910;49.042;9.028;2022-12-07T17:20:55;3.00;99.90
3790;DHT22;1910;49.042;9.028;2022-12-07T17:23:21;3.00;99.90
3790;DHT22;1910;49.042;9.028;2022-12-07T17:25:47;3.00;99.90
3790;DHT22;1910;49.042;9.028;2022-12-07T17:28:13;3.00;99.90
3790;DHT22;1910;49.042;9.028;2022-12-07T17:30:39;3.00;99.90
3790;DHT22;1910;49.042;9.028;2022-12-07T17:33:05;3.00;99.90
3790;DHT22;1910;49.042;9.028;2022-12-07T17:35:30;3.00;99.90
3790;DHT22;1910;49.042;9.028;2022-12-07T17:37:56;3.00;99.90
3790;DHT22;1910;49.042;9.028;2022-12-07T17:40:22;3.00;99.90
3790;DHT22;1910;49.042;9.028;2022-12-07T17:42:47;3.00;99.90
3790;DHT22;1910;49.042;9.028;2022-12-07T17:45:16;3.00;99.90
3790;DHT22;1910;49.042;9.028;2022-12-07T17:47:42;3.00;99.90
3790;DHT22;1910;49.042;9.028;2022-12-07T17:50:08;3.10;99.90
3790;DHT22;1910;49.042;9.028;2022-12-07T17:52:37;3.10;99.90
3790;DHT22;1910;49.042;9.028;2022-12-07T17:55:21;3.00;99.90
3790;DHT22;1910;49.042;9.028;2022-12-07T17:57:47;3.10;99.90
3790;DHT22;1910;49.042;9.028;2022-12-07T18:00:13;3.10;99.90
3790;DHT22;1910;49.042;9.028;2022-12-07T18:02:39;3.10;99.90
3790;DHT22;1910;49.042;9.028;2022-12-07T18:05:05;3.00;99.90
3790;DHT22;1910;49.042;9.028;2022-12-07T18:07:31;3.00;99.90
3790;DHT22;1910;49.042;9.028;2022-12-07T18:12:24;3.10;99.90
3790;DHT22;1910;49.042;9.028;2022-12-07T18:14:49;3.20;99.90
3790;DHT22;1910;49.042;9.028;2022-12-07T18:17:16;3.10;99.90
3790;DHT22;1910;49.042;9.028;2022-12-07T18:19:42;3.10;99.90
3790;DHT22;1910;49.042;9.028;2022-12-07T18:22:07;3.10;99.90
3790;DHT22;1910;49.042;9.028;2022-12-07T18:24:33;3.00;99.90
3790;DHT22;1910;49.042;9.028;2022-12-07T18:26:59;3.00;99.90
3790;DHT22;1910;49.042;9.028;2022-12-07T18:29:25;3.00;99.90
3790;DHT22;1910;49.042;9.028;2022-12-07T18:31:51;3.00;99.90
3790;DHT22;1910;49.042;9.028;2022-12-07T18:34:17;3.00;99.90
3790;DHT22;1910;49.042;9.028;2022-12-07T18:36:45;3.10;99.90
3790;DHT22;1910;49.042;9.028;2022-12-07T18:39:12;3.10;99.90
3790;DHT22;1910;49.042;9.028;2022-12-07T18:41:38;3.10;99.90
3790;DHT22;1910;49.042;9.028;2022-12-07T18:44:05;3.00;99.90
3790;DHT22;1910;49.042;9.028;2022-12-07T18:46:32;3.00;99.90
3790;DHT22;1910;49.042;9.028;2022-12-07T18:48:57;3.00;99.90
3790;DHT22;1910;49.042;9.028;2022-12-07T18:51:23;3.00;99.90
3790;DHT22;1910;49.042;9.028;2022-12-07T18:53:49;3.10;99.90
3790;DHT22;1910;49.042;9.028;2022-12-07T18:56:20;3.10;99.90
3790;DHT22;1910;49.042;9.028;2022-12-07T18:58:55;3.30;99.90
3790;DHT22;1910;49.042;9.028;2022-12-07T19:01:40;3.10;99.90
3790;DHT22;1910;49.042;9.028;2022-12-07T19:04:06;3.10;99.90
3790;DHT22;1910;49.042;9.028;2022-12-07T19:06:32;3.10;99.90
3790;DHT22;1910;49.042;9.028;2022-12-07T19:08:58;3.10;99.90
3790;DHT22;1910;49.042;9.028;2022-12-07T19:11:29;3.10;99.90
3790;DHT22;1910;49.042;9.028;2022-12-07T19:14:21;3.00;99.90
3790;DHT22;1910;49.042;9.028;2022-12-07T19:16:49;3.00;99.90
3790;DHT22;1910;49.042;9.028;2022-12-07T19:19:16;3.10;99.90
3790;DHT22;1910;49.042;9.028;2022-12-07T19:21:42;3.00;99.90